createdAt,value
2018-05-23T00:00:22.507Z,18.66
2018-05-23T00:01:31.668Z,18.55
2018-05-23T00:02:40.622Z,18.6
2018-05-23T00:03:49.480Z,18.51
2018-05-23T00:04:58.635Z,18.5
2018-05-23T00:06:07.501Z,18.48
2018-05-23T00:07:16.367Z,18.45
2018-05-23T00:08:25.506Z,18.42
2018-05-23T00:09:34.937Z,18.42
2018-05-23T00:10:43.797Z,18.32
2018-05-23T00:11:52.662Z,18.36
2018-05-23T00:13:01.524Z,18.36
2018-05-23T00:14:10.489Z,18.37
2018-05-23T00:15:19.630Z,18.26
2018-05-23T00:16:29.047Z,18.29
2018-05-23T00:17:37.910Z,18.35
2018-05-23T00:18:46.768Z,18.3
2018-05-23T00:19:55.781Z,18.29
2018-05-23T00:21:04.651Z,18.23
2018-05-23T00:22:13.792Z,18.17
2018-05-23T00:23:22.655Z,18.25
2018-05-23T00:24:31.516Z,18.25
2018-05-23T00:25:40.433Z,18.23
2018-05-23T00:26:49.343Z,18.15
2018-05-23T00:27:58.209Z,18.2
2018-05-23T00:29:07.073Z,18.23
2018-05-23T00:30:15.934Z,18.18
2018-05-23T00:31:24.845Z,18.21
2018-05-23T00:32:33.710Z,18.2
2018-05-23T00:33:42.570Z,18.2
2018-05-23T00:34:51.433Z,18.17
2018-05-23T00:36:00.299Z,18.21
2018-05-23T00:37:09.158Z,18.14
2018-05-23T00:38:18.018Z,18.08
2018-05-23T00:39:26.879Z,18.05
2018-05-23T00:40:35.745Z,18.1
2018-05-23T00:41:44.608Z,18.05
2018-05-23T00:42:53.819Z,17.97
2018-05-23T00:44:02.683Z,17.99
2018-05-23T00:45:11.548Z,17.99
2018-05-23T00:46:20.410Z,17.93
2018-05-23T00:47:29.829Z,17.89
2018-05-23T00:48:38.694Z,17.87
2018-05-23T00:49:47.553Z,17.9
2018-05-23T00:50:56.690Z,17.92
2018-05-23T00:52:05.567Z,17.81
2018-05-23T00:53:14.416Z,17.74
2018-05-23T00:54:23.560Z,17.74
2018-05-23T00:55:32.417Z,17.75
2018-05-23T00:56:41.278Z,17.81
2018-05-23T00:57:50.422Z,17.75
2018-05-23T00:58:59.280Z,17.74
2018-05-23T01:00:08.523Z,17.64
2018-05-23T01:01:17.386Z,17.7
2018-05-23T01:02:26.252Z,17.62
2018-05-23T01:03:35.751Z,17.72
2018-05-23T01:04:44.612Z,17.68
2018-05-23T01:05:53.823Z,17.59
2018-05-23T01:07:02.683Z,17.56
2018-05-23T01:08:11.829Z,17.56
2018-05-23T01:09:20.692Z,17.56
2018-05-23T01:10:29.830Z,17.62
2018-05-23T01:11:39.049Z,17.49
2018-05-23T01:12:47.909Z,17.56
2018-05-23T01:13:56.770Z,17.51
2018-05-23T01:15:05.633Z,17.48
2018-05-23T01:16:14.495Z,17.48
2018-05-23T01:17:23.506Z,17.44
2018-05-23T01:18:32.369Z,17.4
2018-05-23T01:19:41.232Z,17.4
2018-05-23T01:20:50.374Z,17.41
2018-05-23T01:21:59.234Z,17.44
2018-05-23T01:23:08.245Z,17.38
2018-05-23T01:24:17.105Z,17.38
2018-05-23T01:25:25.979Z,17.33
2018-05-23T01:26:35.134Z,17.33
2018-05-23T01:27:44.268Z,17.25
2018-05-23T01:28:53.180Z,17.21
2018-05-23T01:30:02.330Z,17.18
2018-05-23T01:31:11.188Z,17.21
2018-05-23T01:32:20.048Z,17.21
2018-05-23T01:33:28.909Z,17.16
2018-05-23T01:34:37.920Z,17.12
2018-05-23T01:35:46.782Z,17.14
2018-05-23T01:36:55.921Z,17.14
2018-05-23T01:38:04.783Z,17.12
2018-05-23T01:39:13.647Z,17.04
2018-05-23T01:40:23.001Z,17
2018-05-23T01:41:32.142Z,16.97
2018-05-23T01:42:41.574Z,17.01
2018-05-23T01:43:50.435Z,17.01
2018-05-23T01:44:59.298Z,17.08
2018-05-23T01:46:08.590Z,17.06
2018-05-23T01:47:17.448Z,17.11
2018-05-23T01:48:26.309Z,17.03
2018-05-23T01:49:35.452Z,17.01
2018-05-23T01:50:44.864Z,17
2018-05-23T01:51:53.889Z,16.96
2018-05-23T01:53:03.024Z,16.91
2018-05-23T01:54:11.892Z,16.93
2018-05-23T01:55:21.040Z,16.91
2018-05-23T01:56:30.175Z,16.96
2018-05-23T01:57:39.388Z,16.98
2018-05-23T01:58:48.249Z,16.89
2018-05-23T01:59:57.112Z,16.94
2018-05-23T02:01:05.974Z,16.93
2018-05-23T02:02:14.832Z,16.89
2018-05-23T02:03:23.698Z,16.88
2018-05-23T02:04:32.845Z,16.85
2018-05-23T02:05:41.704Z,16.81
2018-05-23T02:06:50.566Z,16.78
2018-05-23T02:07:59.432Z,16.81
2018-05-23T02:09:08.570Z,16.76
2018-05-23T02:10:17.431Z,16.76
2018-05-23T02:11:26.313Z,16.79
2018-05-23T02:12:35.453Z,16.73
2018-05-23T02:13:44.312Z,16.79
2018-05-23T02:14:53.172Z,16.7
2018-05-23T02:16:02.035Z,16.7
2018-05-23T02:17:11.176Z,16.73
2018-05-23T02:18:20.038Z,16.58
2018-05-23T02:19:28.902Z,16.57
2018-05-23T02:20:37.814Z,16.57
2018-05-23T02:21:46.677Z,16.52
2018-05-23T02:22:55.538Z,16.6
2018-05-23T02:24:04.679Z,16.56
2018-05-23T02:25:13.573Z,16.61
2018-05-23T02:26:22.642Z,16.63
2018-05-23T02:27:31.503Z,16.46
2018-05-23T02:28:40.719Z,16.45
2018-05-23T02:29:49.584Z,16.41
2018-05-23T02:30:58.454Z,16.48
2018-05-23T02:32:07.592Z,16.5
2018-05-23T02:33:17.099Z,16.49
2018-05-23T02:34:26.157Z,16.46
2018-05-23T02:35:35.300Z,16.46
2018-05-23T02:36:44.449Z,16.43
2018-05-23T02:37:54.070Z,16.42
2018-05-23T02:39:02.936Z,16.34
2018-05-23T02:40:12.646Z,16.41
2018-05-23T02:41:21.508Z,16.35
2018-05-23T02:42:31.208Z,16.39
2018-05-23T02:43:40.175Z,16.43
2018-05-23T02:44:49.037Z,16.38
2018-05-23T02:45:58.466Z,16.43
2018-05-23T02:47:07.713Z,16.41
2018-05-23T02:48:16.930Z,16.42
2018-05-23T02:49:26.172Z,16.38
2018-05-23T02:50:35.033Z,16.43
2018-05-23T02:51:44.168Z,16.38
2018-05-23T02:52:53.031Z,16.33
2018-05-23T02:54:02.458Z,16.3
2018-05-23T02:55:11.873Z,16.35
2018-05-23T02:56:21.013Z,16.38
2018-05-23T02:57:29.879Z,16.34
2018-05-23T02:58:38.739Z,16.31
2018-05-23T02:59:47.881Z,16.28
2018-05-23T03:00:57.029Z,16.28
2018-05-23T03:02:06.172Z,16.28
2018-05-23T03:03:15.592Z,16.34
2018-05-23T03:04:25.020Z,16.39
2018-05-23T03:05:33.880Z,16.45
2018-05-23T03:06:43.266Z,16.48
2018-05-23T03:07:52.410Z,16.43
2018-05-23T03:09:01.269Z,16.48
2018-05-23T03:10:10.131Z,16.35
2018-05-23T03:11:18.993Z,16.42
2018-05-23T03:12:28.004Z,16.38
2018-05-23T03:13:36.866Z,16.35
2018-05-23T03:14:45.728Z,16.38
2018-05-23T03:15:54.592Z,16.38
2018-05-23T03:17:03.726Z,16.31
2018-05-23T03:18:12.788Z,16.38
2018-05-23T03:19:21.647Z,16.35
2018-05-23T03:20:30.785Z,16.34
2018-05-23T03:21:39.647Z,16.33
2018-05-23T03:22:48.507Z,16.3
2018-05-23T03:23:57.472Z,16.33
2018-05-23T03:25:06.611Z,16.14
2018-05-23T03:26:15.476Z,16.17
2018-05-23T03:27:24.337Z,16.21
2018-05-23T03:28:33.199Z,16.23
2018-05-23T03:29:42.162Z,16.24
2018-05-23T03:30:51.024Z,16.08
2018-05-23T03:32:00.454Z,16.23
2018-05-23T03:33:09.320Z,16.17
2018-05-23T03:34:18.183Z,16.14
2018-05-23T03:35:27.396Z,16.12
2018-05-23T03:36:36.253Z,16.11
2018-05-23T03:37:45.396Z,16.05
2018-05-23T03:38:54.265Z,16
2018-05-23T03:40:03.126Z,16.01
2018-05-23T03:41:11.991Z,16.01
2018-05-23T03:42:21.408Z,16.02
2018-05-23T03:43:30.547Z,16.05
2018-05-23T03:44:39.409Z,15.96
2018-05-23T03:45:48.268Z,16
2018-05-23T03:46:57.288Z,15.96
2018-05-23T03:48:06.703Z,15.94
2018-05-23T03:49:15.844Z,15.93
2018-05-23T03:50:24.705Z,15.94
2018-05-23T03:51:33.568Z,15.87
2018-05-23T03:52:42.579Z,15.87
2018-05-23T03:53:51.726Z,15.93
2018-05-23T03:55:00.871Z,15.94
2018-05-23T03:56:09.731Z,15.97
2018-05-23T03:57:18.872Z,15.96
2018-05-23T03:58:27.833Z,16.02
2018-05-23T03:59:36.694Z,15.96
2018-05-23T04:00:45.554Z,15.93
2018-05-23T04:01:54.415Z,15.92
2018-05-23T04:03:03.280Z,15.93
2018-05-23T04:04:12.291Z,16.01
2018-05-23T04:05:21.160Z,15.97
2018-05-23T04:06:30.018Z,15.97
2018-05-23T04:07:38.881Z,16
2018-05-23T04:08:47.743Z,15.89
2018-05-23T04:09:56.757Z,15.87
2018-05-23T04:11:05.910Z,15.94
2018-05-23T04:12:14.774Z,16.04
2018-05-23T04:13:23.636Z,15.92
2018-05-23T04:14:32.777Z,15.96
2018-05-23T04:15:42.324Z,16.01
2018-05-23T04:16:51.187Z,16.02
2018-05-23T04:18:00.054Z,16.01
2018-05-23T04:19:09.191Z,16.05
2018-05-23T04:20:18.053Z,16.05
2018-05-23T04:21:26.913Z,16.05
2018-05-23T04:22:35.777Z,16
2018-05-23T04:23:44.638Z,16.04
2018-05-23T04:24:53.556Z,16.01
2018-05-23T04:26:02.791Z,15.97
2018-05-23T04:27:11.802Z,16.07
2018-05-23T04:28:20.664Z,16.01
2018-05-23T04:29:29.526Z,16
2018-05-23T04:30:38.389Z,16.02
2018-05-23T04:31:47.530Z,15.97
2018-05-23T04:32:56.443Z,16.01
2018-05-23T04:34:05.303Z,15.96
2018-05-23T04:35:14.168Z,16
2018-05-23T04:36:23.036Z,16.05
2018-05-23T04:37:31.908Z,16.04
2018-05-23T04:38:41.107Z,16.08
2018-05-23T04:39:50.251Z,16.08
2018-05-23T04:40:59.117Z,16.07
2018-05-23T04:42:08.253Z,16.05
2018-05-23T04:43:17.117Z,16.01
2018-05-23T04:44:26.025Z,16.02
2018-05-23T04:45:34.886Z,16.07
2018-05-23T04:46:43.747Z,16.04
2018-05-23T04:47:52.611Z,16.14
2018-05-23T04:49:02.029Z,16.12
2018-05-23T04:50:11.522Z,16.17
2018-05-23T04:51:20.936Z,16.12
2018-05-23T04:52:29.802Z,16.28
2018-05-23T04:53:38.948Z,16.15
2018-05-23T04:54:47.807Z,16.25
2018-05-23T04:55:56.818Z,16.2
2018-05-23T04:57:05.688Z,16.11
2018-05-23T04:58:14.546Z,16.14
2018-05-23T04:59:23.405Z,16.15
2018-05-23T05:00:32.549Z,16.24
2018-05-23T05:01:41.747Z,16.23
2018-05-23T05:02:50.606Z,16.09
2018-05-23T05:03:59.468Z,16.2
2018-05-23T05:05:08.332Z,16.27
2018-05-23T05:06:17.194Z,16.17
2018-05-23T05:07:26.154Z,16.3
2018-05-23T05:08:35.014Z,16.33
2018-05-23T05:09:43.887Z,16.33
2018-05-23T05:10:53.317Z,16.33
2018-05-23T05:12:02.170Z,16.27
2018-05-23T05:13:11.033Z,16.33
2018-05-23T05:14:19.893Z,16.35
2018-05-23T05:15:28.753Z,16.35
2018-05-23T05:16:37.902Z,16.39
2018-05-23T05:17:47.046Z,16.43
2018-05-23T05:18:55.961Z,16.41
2018-05-23T05:20:04.822Z,16.38
2018-05-23T05:21:13.686Z,16.42
2018-05-23T05:22:22.550Z,16.46
2018-05-23T05:23:31.728Z,16.39
2018-05-23T05:24:41.022Z,16.38
2018-05-23T05:25:49.881Z,16.46
2018-05-23T05:26:59.023Z,16.49
2018-05-23T05:28:07.887Z,16.39
2018-05-23T05:29:16.754Z,16.49
2018-05-23T05:30:25.668Z,16.49
2018-05-23T05:31:34.529Z,16.5
2018-05-23T05:32:43.395Z,16.46
2018-05-23T05:33:52.261Z,16.45
2018-05-23T05:35:01.225Z,16.48
2018-05-23T05:36:10.235Z,16.53
2018-05-23T05:37:19.098Z,16.5
2018-05-23T05:38:27.971Z,16.58
2018-05-23T05:39:36.832Z,16.61
2018-05-23T05:40:45.693Z,16.61
2018-05-23T05:41:54.829Z,16.48
2018-05-23T05:43:03.969Z,16.61
2018-05-23T05:44:12.831Z,16.66
2018-05-23T05:45:21.972Z,16.68
2018-05-23T05:46:30.838Z,16.68
2018-05-23T05:47:40.048Z,16.61
2018-05-23T05:48:48.909Z,16.57
2018-05-23T05:49:58.084Z,16.63
2018-05-23T05:51:07.225Z,16.66
2018-05-23T05:52:16.221Z,16.58
2018-05-23T05:53:27.300Z,16.56
2018-05-23T05:54:37.425Z,16.6
2018-05-23T05:55:46.801Z,16.7
2018-05-23T05:56:56.604Z,16.67
2018-05-23T05:58:06.502Z,16.7
2018-05-23T05:59:16.464Z,16.68
2018-05-23T06:00:26.163Z,16.71
2018-05-23T06:01:36.347Z,16.75
2018-05-23T06:02:45.617Z,16.81
2018-05-23T06:03:54.852Z,16.88
2018-05-23T06:05:04.045Z,16.89
2018-05-23T06:06:13.720Z,16.83
2018-05-23T06:07:23.049Z,16.83
2018-05-23T06:08:32.954Z,16.88
2018-05-23T06:09:42.851Z,16.93
2018-05-23T06:10:52.134Z,16.96
2018-05-23T06:12:01.418Z,16.96
2018-05-23T06:13:10.772Z,17
2018-05-23T06:14:20.196Z,16.94
2018-05-23T06:15:30.132Z,17.01
2018-05-23T06:16:39.718Z,17
2018-05-23T06:17:49.034Z,17.06
2018-05-23T06:18:58.713Z,17.08
2018-05-23T06:20:08.275Z,17.08
2018-05-23T06:21:17.530Z,17.14
2018-05-23T06:22:26.894Z,17.11
2018-05-23T06:23:36.653Z,17.06
2018-05-23T06:24:45.518Z,17.19
2018-05-23T06:25:54.381Z,17.19
2018-05-23T06:27:03.246Z,17.19
2018-05-23T06:28:12.360Z,17.18
2018-05-23T06:29:21.537Z,17.21
2018-05-23T06:30:31.179Z,17.3
2018-05-23T06:31:40.232Z,17.28
2018-05-23T06:32:49.408Z,17.28
2018-05-23T06:33:58.603Z,17.38
2018-05-23T06:35:07.467Z,17.28
2018-05-23T06:36:16.332Z,17.34
2018-05-23T06:37:25.194Z,17.46
2018-05-23T06:38:34.062Z,17.41
2018-05-23T06:39:43.174Z,17.44
2018-05-23T06:40:52.039Z,17.58
2018-05-23T06:42:00.904Z,17.52
2018-05-23T06:43:09.771Z,17.64
2018-05-23T06:44:18.927Z,17.7
2018-05-23T06:45:28.139Z,17.74
2018-05-23T06:46:37.005Z,17.75
2018-05-23T06:47:45.868Z,17.89
2018-05-23T06:48:55.012Z,17.95
2018-05-23T06:50:03.958Z,17.96
2018-05-23T06:51:13.225Z,17.95
2018-05-23T06:52:22.089Z,17.93
2018-05-23T06:53:30.953Z,18.03
2018-05-23T06:54:39.817Z,18.05
2018-05-23T06:55:49.091Z,18.1
2018-05-23T06:56:58.103Z,18.1
2018-05-23T06:58:07.015Z,18.15
2018-05-23T06:59:15.831Z,18.17
2018-05-23T07:00:24.698Z,18.25
2018-05-23T07:01:33.563Z,18.17
2018-05-23T07:02:42.578Z,18.29
2018-05-23T07:03:51.443Z,18.33
2018-05-23T07:05:00.597Z,18.3
2018-05-23T07:06:09.455Z,18.35
2018-05-23T07:07:18.603Z,18.41
2018-05-23T07:08:27.615Z,18.37
2018-05-23T07:09:36.755Z,18.44
2018-05-23T07:10:45.617Z,18.47
2018-05-23T07:11:54.483Z,18.47
2018-05-23T07:13:03.624Z,18.41
2018-05-23T07:14:12.546Z,18.54
2018-05-23T07:15:21.407Z,18.54
2018-05-23T07:16:30.266Z,18.62
2018-05-23T07:17:39.762Z,18.57
2018-05-23T07:18:48.905Z,18.58
2018-05-23T07:19:57.766Z,18.67
2018-05-23T07:21:06.628Z,18.67
2018-05-23T07:22:15.492Z,18.67
2018-05-23T07:23:24.630Z,18.67
2018-05-23T07:24:33.775Z,18.82
2018-05-23T07:25:42.977Z,18.95
2018-05-23T07:26:51.841Z,18.87
2018-05-23T07:28:00.990Z,19.11
2018-05-23T07:29:09.856Z,19.11
2018-05-23T07:30:18.998Z,19.08
2018-05-23T07:31:28.558Z,19.06
2018-05-23T07:32:37.420Z,19.11
2018-05-23T07:33:46.284Z,19.08
2018-05-23T07:34:55.146Z,19.19
2018-05-23T07:36:04.009Z,19.29
2018-05-23T07:37:12.922Z,19.29
2018-05-23T07:38:21.834Z,19.48
2018-05-23T07:39:31.280Z,19.47
2018-05-23T07:40:40.422Z,19.46
2018-05-23T07:41:49.288Z,19.61
2018-05-23T07:42:58.790Z,19.62
2018-05-23T07:44:07.655Z,19.74
2018-05-23T07:45:16.519Z,19.8
2018-05-23T07:46:25.385Z,19.95
2018-05-23T07:47:34.249Z,19.83
2018-05-23T07:48:43.266Z,19.87
2018-05-23T07:49:52.127Z,19.92
2018-05-23T07:51:00.996Z,20.02
2018-05-23T07:52:09.859Z,20.03
2018-05-23T07:53:18.723Z,20.13
2018-05-23T07:54:27.736Z,20.1
2018-05-23T07:55:36.877Z,20.11
2018-05-23T07:56:45.785Z,20.11
2018-05-23T07:57:54.606Z,20.2
2018-05-23T07:59:03.469Z,20.17
2018-05-23T08:00:13.340Z,20.26
2018-05-23T08:01:22.482Z,20.28
2018-05-23T08:02:31.625Z,20.32
2018-05-23T08:03:40.489Z,20.29
2018-05-23T08:04:49.629Z,20.33
2018-05-23T08:05:58.797Z,20.41
2018-05-23T08:07:08.212Z,20.51
2018-05-23T08:08:17.077Z,20.5
2018-05-23T08:09:25.942Z,20.55
2018-05-23T08:10:34.805Z,20.72
2018-05-23T08:11:44.088Z,20.76
2018-05-23T08:12:53.228Z,20.76
2018-05-23T08:14:02.095Z,20.94
2018-05-23T08:15:10.962Z,21.04
2018-05-23T08:16:19.828Z,20.95
2018-05-23T08:17:29.146Z,21.06
2018-05-23T08:18:38.011Z,21.14
2018-05-23T08:19:46.876Z,21.19
2018-05-23T08:20:55.744Z,21.29
2018-05-23T08:22:04.608Z,21.21
2018-05-23T08:23:13.847Z,21.01
2018-05-23T08:24:23.085Z,21.12
2018-05-23T08:25:31.862Z,21.35
2018-05-23T08:26:40.725Z,21.46
2018-05-23T08:27:49.593Z,21.47
2018-05-23T08:28:58.612Z,21.47
2018-05-23T08:30:07.760Z,21.52
2018-05-23T08:31:17.186Z,21.43
2018-05-23T08:32:26.052Z,21.44
2018-05-23T08:33:35.203Z,21.47
2018-05-23T08:34:44.171Z,21.65
2018-05-23T08:35:53.321Z,21.79
2018-05-23T08:37:02.337Z,21.79
2018-05-23T08:38:11.476Z,21.75
2018-05-23T08:39:20.342Z,21.86
2018-05-23T08:40:29.360Z,21.86
2018-05-23T08:41:38.224Z,21.8
2018-05-23T08:42:47.086Z,21.86
2018-05-23T08:43:56.231Z,21.96
2018-05-23T08:45:05.374Z,21.94
2018-05-23T08:46:14.603Z,22.09
2018-05-23T08:47:23.459Z,22.17
2018-05-23T08:48:32.321Z,22.21
2018-05-23T08:49:41.186Z,22.25
2018-05-23T08:50:50.053Z,22.09
2018-05-23T08:51:59.019Z,22.14
2018-05-23T08:53:08.162Z,22.2
2018-05-23T08:54:17.587Z,22.1
2018-05-23T08:55:26.450Z,22.05
2018-05-23T08:56:35.314Z,21.91
2018-05-23T08:57:44.279Z,21.98
2018-05-23T08:58:53.143Z,21.92
2018-05-23T09:00:02.010Z,22.05
2018-05-23T09:01:10.876Z,22.1
2018-05-23T09:02:19.748Z,22.18
2018-05-23T09:03:28.664Z,22.21
2018-05-23T09:04:37.810Z,22.3
2018-05-23T09:05:47.266Z,22.42
2018-05-23T09:06:56.138Z,22.52
2018-05-23T09:08:05.003Z,22.54
2018-05-23T09:09:14.195Z,22.37
2018-05-23T09:10:23.118Z,22.36
2018-05-23T09:11:31.931Z,22.51
2018-05-23T09:12:40.889Z,22.62
2018-05-23T09:13:49.664Z,22.79
2018-05-23T09:14:58.583Z,22.79
2018-05-23T09:16:07.448Z,22.97
2018-05-23T09:17:16.315Z,22.98
2018-05-23T09:18:25.184Z,23.2
2018-05-23T09:19:34.328Z,23.2
2018-05-23T09:20:43.641Z,23.23
2018-05-23T09:21:52.789Z,23.27
2018-05-23T09:23:01.655Z,23.33
2018-05-23T09:24:10.523Z,23.5
2018-05-23T09:25:19.683Z,23.39
2018-05-23T09:26:28.736Z,23.36
2018-05-23T09:27:37.602Z,23.55
2018-05-23T09:28:46.471Z,23.55
2018-05-23T09:29:55.338Z,23.58
2018-05-23T09:31:04.204Z,23.69
2018-05-23T09:32:13.760Z,23.6
2018-05-23T09:33:22.952Z,23.6
2018-05-23T09:34:31.815Z,23.35
2018-05-23T09:35:40.681Z,23.43
2018-05-23T09:36:49.548Z,23.51
2018-05-23T09:37:58.463Z,23.54
2018-05-23T09:39:08.046Z,23.61
2018-05-23T09:40:17.561Z,23.76
2018-05-23T09:41:26.430Z,23.9
2018-05-23T09:42:35.297Z,23.95
2018-05-23T09:43:44.313Z,23.93
2018-05-23T09:44:53.181Z,23.95
2018-05-23T09:46:02.326Z,23.93
2018-05-23T09:47:11.194Z,23.75
2018-05-23T09:48:20.060Z,23.79
2018-05-23T09:49:29.080Z,23.9
2018-05-23T09:50:37.946Z,23.95
2018-05-23T09:51:46.811Z,23.95
2018-05-23T09:52:55.965Z,24.05
2018-05-23T09:54:04.829Z,24.06
2018-05-23T09:55:13.745Z,24.09
2018-05-23T09:56:22.611Z,24.08
2018-05-23T09:57:31.480Z,23.93
2018-05-23T09:58:40.346Z,24
2018-05-23T09:59:49.489Z,24.13
2018-05-23T10:00:58.456Z,24.13
2018-05-23T10:02:07.603Z,24.21
2018-05-23T10:03:16.749Z,24.18
2018-05-23T10:04:25.618Z,24.22
2018-05-23T10:05:34.480Z,24.25
2018-05-23T10:06:43.346Z,24.16
2018-05-23T10:07:52.490Z,24.3
2018-05-23T10:09:01.361Z,24.4
2018-05-23T10:10:10.226Z,24.43
2018-05-23T10:11:19.089Z,24.34
2018-05-23T10:12:28.107Z,24.3
2018-05-23T10:13:36.977Z,24.42
2018-05-23T10:14:45.845Z,24.32
2018-05-23T10:15:54.713Z,24.31
2018-05-23T10:17:03.581Z,24.27
2018-05-23T10:18:12.447Z,24.35
2018-05-23T10:19:21.314Z,24.43
2018-05-23T10:20:30.186Z,24.53
2018-05-23T10:21:39.053Z,24.55
2018-05-23T10:22:47.920Z,24.57
2018-05-23T10:23:57.042Z,24.47
2018-05-23T10:25:06.463Z,24.61
2018-05-23T10:26:15.374Z,24.67
2018-05-23T10:27:25.140Z,24.64
2018-05-23T10:28:34.005Z,24.64
2018-05-23T10:29:43.224Z,24.53
2018-05-23T10:30:52.093Z,24.84
2018-05-23T10:32:00.964Z,24.78
2018-05-23T10:33:09.833Z,24.87
2018-05-23T10:34:18.702Z,24.91
2018-05-23T10:35:27.619Z,24.9
2018-05-23T10:36:36.488Z,24.87
2018-05-23T10:37:45.636Z,24.84
2018-05-23T10:38:54.507Z,24.87
2018-05-23T10:40:03.379Z,24.99
2018-05-23T10:41:12.596Z,25.02
2018-05-23T10:42:21.470Z,24.99
2018-05-23T10:43:30.619Z,25.06
2018-05-23T10:44:39.489Z,25.03
2018-05-23T10:45:48.357Z,24.96
2018-05-23T10:46:57.652Z,24.87
2018-05-23T10:48:06.522Z,24.9
2018-05-23T10:49:15.392Z,24.91
2018-05-23T10:50:24.541Z,24.95
2018-05-23T10:51:33.971Z,25.02
2018-05-23T10:52:43.224Z,25.08
2018-05-23T10:53:52.094Z,25.09
2018-05-23T10:55:00.963Z,25.24
2018-05-23T10:56:10.110Z,25.24
2018-05-23T10:57:18.980Z,25.2
2018-05-23T10:58:28.201Z,25.32
2018-05-23T10:59:37.624Z,25.32
2018-05-23T11:00:46.826Z,25.3
2018-05-23T11:01:55.642Z,25.38
2018-05-23T11:03:04.510Z,25.35
2018-05-23T11:04:13.434Z,25.1
2018-05-23T11:05:22.307Z,25.23
2018-05-23T11:06:31.466Z,25.25
2018-05-23T11:07:40.338Z,25.23
2018-05-23T11:08:49.565Z,25.35
2018-05-23T11:09:59.210Z,25.33
2018-05-23T11:11:08.376Z,25.46
2018-05-23T11:12:17.244Z,25.42
2018-05-23T11:13:26.111Z,25.46
2018-05-23T11:14:34.979Z,25.43
2018-05-23T11:15:44.274Z,25.42
2018-05-23T11:16:53.142Z,25.39
2018-05-23T11:18:02.012Z,25.42
2018-05-23T11:19:11.441Z,25.32
2018-05-23T11:20:20.311Z,25.38
2018-05-23T11:21:29.277Z,25.43
2018-05-23T11:22:38.147Z,25.47
2018-05-23T11:23:47.017Z,25.55
2018-05-23T11:24:56.162Z,25.46
2018-05-23T11:26:05.035Z,25.54
2018-05-23T11:27:14.251Z,25.65
2018-05-23T11:28:23.122Z,25.61
2018-05-23T11:29:32.269Z,25.62
2018-05-23T11:30:41.139Z,25.67
2018-05-23T11:31:50.008Z,25.67
2018-05-23T11:32:58.932Z,25.67
2018-05-23T11:34:07.798Z,25.64
2018-05-23T11:35:16.671Z,25.75
2018-05-23T11:36:25.540Z,25.79
2018-05-23T11:37:34.407Z,25.75
2018-05-23T11:38:43.325Z,25.83
2018-05-23T11:39:52.756Z,25.76
2018-05-23T11:41:01.626Z,25.62
2018-05-23T11:42:10.496Z,25.7
2018-05-23T11:43:19.657Z,25.67
2018-05-23T11:44:29.155Z,25.77
2018-05-23T11:45:38.021Z,25.75
2018-05-23T11:46:46.900Z,25.79
2018-05-23T11:47:56.042Z,25.85
2018-05-23T11:49:05.193Z,25.83
2018-05-23T11:50:14.061Z,25.94
2018-05-23T11:51:22.930Z,26.02
2018-05-23T11:52:32.086Z,26.06
2018-05-23T11:53:40.949Z,25.98
2018-05-23T11:54:49.822Z,26.06
2018-05-23T11:55:58.691Z,26.13
2018-05-23T11:57:07.561Z,26.15
2018-05-23T11:58:16.436Z,26.28
2018-05-23T11:59:25.335Z,26.35
2018-05-23T12:00:34.790Z,26.45
2018-05-23T12:01:44.016Z,26.23
2018-05-23T12:02:53.477Z,26.28
2018-05-23T12:04:02.348Z,26.2
2018-05-23T12:05:11.218Z,26.33
2018-05-23T12:06:20.092Z,26.29
2018-05-23T12:07:29.016Z,26.35
2018-05-23T12:08:37.887Z,26.33
2018-05-23T12:09:46.754Z,26.51
2018-05-23T12:10:55.626Z,26.5
2018-05-23T12:12:04.496Z,26.51
2018-05-23T12:13:13.523Z,26.54
2018-05-23T12:14:22.392Z,26.65
2018-05-23T12:15:31.264Z,26.67
2018-05-23T12:16:40.142Z,26.82
2018-05-23T12:17:49.292Z,26.94
2018-05-23T12:18:58.216Z,26.87
2018-05-23T12:20:07.090Z,26.99
2018-05-23T12:21:16.242Z,27.21
2018-05-23T12:22:25.116Z,27.18
2018-05-23T12:23:33.989Z,27.18
2018-05-23T12:24:42.863Z,27.12
2018-05-23T12:25:51.739Z,27.06
2018-05-23T12:27:00.895Z,27.02
2018-05-23T12:28:09.769Z,27.14
2018-05-23T12:29:18.645Z,27.19
2018-05-23T12:30:27.866Z,27.12
2018-05-23T12:31:37.019Z,27.27
2018-05-23T12:32:46.180Z,27.4
2018-05-23T12:33:55.330Z,27.44
2018-05-23T12:35:04.209Z,27.49
2018-05-23T12:36:13.430Z,27.69
2018-05-23T12:37:22.307Z,27.74
2018-05-23T12:38:31.188Z,27.88
2018-05-23T12:39:40.340Z,27.87
2018-05-23T12:40:49.215Z,27.81
2018-05-23T12:41:58.441Z,27.97
2018-05-23T12:43:07.315Z,27.96
2018-05-23T12:44:16.192Z,27.96
2018-05-23T12:45:25.077Z,27.96
2018-05-23T12:46:33.955Z,27.93
2018-05-23T12:47:43.185Z,27.87
2018-05-23T12:48:52.352Z,28.02
2018-05-23T12:50:01.227Z,28.11
2018-05-23T12:51:10.392Z,28.06
2018-05-23T12:52:19.271Z,28.22
2018-05-23T12:53:28.453Z,28.27
2018-05-23T12:54:37.336Z,28.3
2018-05-23T12:55:46.207Z,28.25
2018-05-23T12:56:55.431Z,28.3
2018-05-23T12:58:04.245Z,28.36
2018-05-23T12:59:13.175Z,28.39
2018-05-23T13:00:22.052Z,28.34
2018-05-23T13:01:31.205Z,28.41
2018-05-23T13:02:40.236Z,28.27
2018-05-23T13:03:49.407Z,28.36
2018-05-23T13:04:58.385Z,28.04
2018-05-23T13:06:07.263Z,28.15
2018-05-23T13:07:16.142Z,28.34
2018-05-23T13:08:25.022Z,28.41
2018-05-23T13:09:33.900Z,28.66
2018-05-23T13:10:42.928Z,28.54
2018-05-23T13:11:51.805Z,28.58
2018-05-23T13:13:00.681Z,28.71
2018-05-23T13:14:09.561Z,28.77
2018-05-23T13:15:18.439Z,28.8
2018-05-23T13:16:27.367Z,28.77
2018-05-23T13:17:36.533Z,28.73
2018-05-23T13:18:45.409Z,28.81
2018-05-23T13:19:54.568Z,28.89
2018-05-23T13:21:03.451Z,28.95
2018-05-23T13:22:13.055Z,29
2018-05-23T13:23:21.934Z,29.16
2018-05-23T13:24:30.814Z,29.15
2018-05-23T13:25:39.692Z,29.34
2018-05-23T13:26:48.571Z,29.27
2018-05-23T13:27:58.566Z,29.33
2018-05-23T13:29:07.718Z,29.42
2018-05-23T13:30:16.596Z,29.51
2018-05-23T13:31:25.477Z,29.34
2018-05-23T13:32:34.356Z,29.16
2018-05-23T13:33:43.588Z,29.06
2018-05-23T13:34:52.468Z,28.95
2018-05-23T13:36:01.369Z,29.19
2018-05-23T13:37:10.528Z,29.21
2018-05-23T13:38:19.410Z,29.26
2018-05-23T13:39:28.774Z,29.24
2018-05-23T13:40:37.659Z,29.37
2018-05-23T13:41:46.539Z,29.42
2018-05-23T13:42:55.420Z,29.43
2018-05-23T13:44:04.318Z,29.61
2018-05-23T13:45:13.389Z,29.7
2018-05-23T13:46:22.329Z,29.8
2018-05-23T13:47:31.207Z,29.48
2018-05-23T13:48:40.085Z,29.31
2018-05-23T13:49:48.962Z,29.31
2018-05-23T13:50:57.844Z,29.45
2018-05-23T13:52:06.723Z,29.63
2018-05-23T13:53:15.603Z,29.89
2018-05-23T13:54:24.484Z,30
2018-05-23T13:55:33.440Z,29.98
2018-05-23T13:56:42.314Z,30.05
2018-05-23T13:57:51.557Z,30.01
2018-05-23T13:59:00.492Z,29.83
2018-05-23T14:00:09.930Z,29.92
2018-05-23T14:01:19.099Z,29.92
2018-05-23T14:02:28.584Z,30.04
2018-05-23T14:03:37.839Z,29.89
2018-05-23T14:04:46.766Z,29.98
2018-05-23T14:05:55.908Z,30.22
2018-05-23T14:07:04.820Z,30.26
2018-05-23T14:08:13.700Z,30.23
2018-05-23T14:09:22.860Z,30.35
2018-05-23T14:10:32.273Z,30.55
2018-05-23T14:11:41.196Z,30.42
2018-05-23T14:12:50.302Z,30.34
2018-05-23T14:13:59.233Z,30.31
2018-05-23T14:15:08.394Z,30.1
2018-05-23T14:16:17.281Z,29.79
2018-05-23T14:17:26.442Z,29.89
2018-05-23T14:18:35.319Z,30.04
2018-05-23T14:19:44.700Z,30.32
2018-05-23T14:20:53.858Z,30.19
2018-05-23T14:22:02.738Z,30.43
2018-05-23T14:23:11.619Z,30.39
2018-05-23T14:24:20.501Z,30.57
2018-05-23T14:25:30.181Z,30.76
2018-05-23T14:26:39.620Z,30.95
2018-05-23T14:27:48.500Z,31.04
2018-05-23T14:28:57.385Z,31.02
2018-05-23T14:30:06.544Z,31.13
2018-05-23T14:31:15.706Z,31.01
2018-05-23T14:32:24.585Z,31.14
2018-05-23T14:33:33.467Z,31.12
2018-05-23T14:34:42.349Z,31.26
2018-05-23T14:35:51.321Z,31.47
2018-05-23T14:37:00.109Z,31.54
2018-05-23T14:38:08.988Z,30.92
2018-05-23T14:39:18.144Z,31.01
2018-05-23T14:40:27.024Z,31.02
2018-05-23T14:41:35.905Z,31.16
2018-05-23T14:42:44.885Z,31.41
2018-05-23T14:43:53.767Z,31.66
2018-05-23T14:45:02.648Z,31.8
2018-05-23T14:46:11.530Z,31.91
2018-05-23T14:47:20.411Z,31.92
2018-05-23T14:48:29.445Z,31.29
2018-05-23T14:49:38.599Z,31.39
2018-05-23T14:50:47.479Z,31.65
2018-05-23T14:51:56.361Z,31.53
2018-05-23T14:53:05.241Z,31.53